sensor_id;sensor_type;location;lat;lon;timestamp;pressure;altitude;pressure_sealevel;temperature;humidity
62617;BME280;62539;51.190;6.808;2023-06-10T00:01:56;101074.38;;;27.34;44.17
62617;BME280;62539;51.190;6.808;2023-06-10T00:04:25;101076.16;;;27.33;44.21
62617;BME280;62539;51.190;6.808;2023-06-10T00:06:52;101079.78;;;27.32;44.53
62617;BME280;62539;51.190;6.808;2023-06-10T00:09:19;101079.78;;;27.32;44.29
62617;BME280;62539;51.190;6.808;2023-06-10T00:11:46;101081.59;;;27.32;44.23
62617;BME280;62539;51.190;6.808;2023-06-10T00:14:12;101085.09;;;27.32;44.32
62617;BME280;62539;51.190;6.808;2023-06-10T00:16:37;101084.28;;;27.32;44.25
62617;BME280;62539;51.190;6.808;2023-06-10T00:19:04;101080.84;;;27.29;44.07
62617;BME280;62539;51.190;6.808;2023-06-10T00:21:34;101080.00;;;27.29;44.08
62617;BME280;62539;51.190;6.808;2023-06-10T00:24:04;101080.00;;;27.29;44.26
62617;BME280;62539;51.190;6.808;2023-06-10T00:26:30;101077.44;;;27.27;44.35
62617;BME280;62539;51.190;6.808;2023-06-10T00:28:57;101074.78;;;27.27;44.37
62617;BME280;62539;51.190;6.808;2023-06-10T00:31:22;101076.56;;;27.27;44.18
62617;BME280;62539;51.190;6.808;2023-06-10T00:33:47;101077.44;;;27.27;44.59
62617;BME280;62539;51.190;6.808;2023-06-10T00:36:13;101081.06;;;27.26;44.35
62617;BME280;62539;51.190;6.808;2023-06-10T00:38:38;101082.97;;;27.24;44.28
62617;BME280;62539;51.190;6.808;2023-06-10T00:41:06;101090.00;;;27.25;44.36
62617;BME280;62539;51.190;6.808;2023-06-10T00:43:32;101090.00;;;27.25;44.49
62617;BME280;62539;51.190;6.808;2023-06-10T00:45:57;101082.09;;;27.24;44.29
62617;BME280;62539;51.190;6.808;2023-06-10T00:48:23;101090.97;;;27.24;44.47
62617;BME280;62539;51.190;6.808;2023-06-10T00:50:49;101086.59;;;27.23;44.57
62617;BME280;62539;51.190;6.808;2023-06-10T00:53:15;101090.22;;;27.22;44.44
62617;BME280;62539;51.190;6.808;2023-06-10T00:55:42;101092.88;;;27.22;44.59
62617;BME280;62539;51.190;6.808;2023-06-10T00:58:08;101086.78;;;27.20;44.35
62617;BME280;62539;51.190;6.808;2023-06-10T01:00:34;101084.13;;;27.20;44.51
62617;BME280;62539;51.190;6.808;2023-06-10T01:02:59;101084.22;;;27.19;44.49
62617;BME280;62539;51.190;6.808;2023-06-10T01:05:25;101084.22;;;27.19;44.58
62617;BME280;62539;51.190;6.808;2023-06-10T01:11:00;101092.31;;;27.17;44.44
62617;BME280;62539;51.190;6.808;2023-06-10T01:13:29;101094.25;;;27.15;44.75
62617;BME280;62539;51.190;6.808;2023-06-10T01:15:57;101091.56;;;27.15;44.75
62617;BME280;62539;51.190;6.808;2023-06-10T01:18:23;101089.88;;;27.14;44.64
62617;BME280;62539;51.190;6.808;2023-06-10T01:20:55;101089.00;;;27.13;44.56
62617;BME280;62539;51.190;6.808;2023-06-10T01:23:21;101090.81;;;27.13;44.62
62617;BME280;62539;51.190;6.808;2023-06-10T01:26:09;101096.34;;;27.10;44.62
62617;BME280;62539;51.190;6.808;2023-06-10T01:28:42;101098.06;;;27.11;44.82
62617;BME280;62539;51.190;6.808;2023-06-10T01:31:21;101090.06;;;27.11;44.51
62617;BME280;62539;51.190;6.808;2023-06-10T01:34:00;101094.66;;;27.09;44.50
62617;BME280;62539;51.190;6.808;2023-06-10T01:36:28;101105.28;;;27.09;44.43
62617;BME280;62539;51.190;6.808;2023-06-10T01:38:55;101103.59;;;27.08;44.89
62617;BME280;62539;51.190;6.808;2023-06-10T01:41:23;101107.22;;;27.07;44.62
62617;BME280;62539;51.190;6.808;2023-06-10T01:43:49;101105.50;;;27.06;44.55
62617;BME280;62539;51.190;6.808;2023-06-10T01:46:15;101100.16;;;27.06;44.63
62617;BME280;62539;51.190;6.808;2023-06-10T01:48:44;101093.13;;;27.05;44.71
62617;BME280;62539;51.190;6.808;2023-06-10T01:51:10;101100.25;;;27.04;44.65
62617;BME280;62539;51.190;6.808;2023-06-10T01:53:35;101105.69;;;27.03;44.41
62617;BME280;62539;51.190;6.808;2023-06-10T01:56:01;101098.66;;;27.02;44.94
62617;BME280;62539;51.190;6.808;2023-06-10T01:58:26;101096.97;;;27.00;44.98
62617;BME280;62539;51.190;6.808;2023-06-10T02:00:52;101095.25;;;26.99;45.04
62617;BME280;62539;51.190;6.808;2023-06-10T02:03:17;101100.56;;;26.99;45.00
62617;BME280;62539;51.190;6.808;2023-06-10T02:05:43;101098.88;;;26.98;44.59
62617;BME280;62539;51.190;6.808;2023-06-10T02:08:09;101098.88;;;26.98;44.67
62617;BME280;62539;51.190;6.808;2023-06-10T02:10:34;101106.00;;;26.98;44.79
62617;BME280;62539;51.190;6.808;2023-06-10T02:12:59;101106.09;;;26.96;44.96
62617;BME280;62539;51.190;6.808;2023-06-10T02:15:25;101109.72;;;26.95;44.77
62617;BME280;62539;51.190;6.808;2023-06-10T02:17:51;101117.72;;;26.95;44.91
62617;BME280;62539;51.190;6.808;2023-06-10T02:20:17;101115.03;;;26.95;44.78
62617;BME280;62539;51.190;6.808;2023-06-10T02:22:42;101116.09;;;26.93;44.82
62617;BME280;62539;51.190;6.808;2023-06-10T02:25:08;101112.59;;;26.92;44.75
62617;BME280;62539;51.190;6.808;2023-06-10T02:27:34;101130.25;;;26.93;45.07
62617;BME280;62539;51.190;6.808;2023-06-10T02:29:59;101119.69;;;26.92;44.95
62617;BME280;62539;51.190;6.808;2023-06-10T02:32:25;101127.78;;;26.90;44.73
62617;BME280;62539;51.190;6.808;2023-06-10T02:34:51;101133.13;;;26.90;44.72
62617;BME280;62539;51.190;6.808;2023-06-10T02:37:16;101121.59;;;26.90;44.89
62617;BME280;62539;51.190;6.808;2023-06-10T02:39:42;101127.88;;;26.89;44.71
62617;BME280;62539;51.190;6.808;2023-06-10T02:42:08;101118.19;;;26.88;44.81
62617;BME280;62539;51.190;6.808;2023-06-10T02:44:33;101112.97;;;26.86;45.05
62617;BME280;62539;51.190;6.808;2023-06-10T02:46:59;101125.41;;;26.85;45.10
62617;BME280;62539;51.190;6.808;2023-06-10T02:49:24;101120.22;;;26.84;44.79
62617;BME280;62539;51.190;6.808;2023-06-10T02:51:52;101123.72;;;26.84;44.89
62617;BME280;62539;51.190;6.808;2023-06-10T02:54:19;101122.88;;;26.84;44.77
62617;BME280;62539;51.190;6.808;2023-06-10T02:56:45;101118.50;;;26.83;44.78
62617;BME280;62539;51.190;6.808;2023-06-10T02:59:13;101127.31;;;26.83;44.98
62617;BME280;62539;51.190;6.808;2023-06-10T03:01:39;101122.09;;;26.82;45.02
62617;BME280;62539;51.190;6.808;2023-06-10T03:04:06;101128.34;;;26.81;45.01
62617;BME280;62539;51.190;6.808;2023-06-10T03:06:31;101126.66;;;26.80;44.97
62617;BME280;62539;51.190;6.808;2023-06-10T03:09:01;101131.97;;;26.80;45.07
62617;BME280;62539;51.190;6.808;2023-06-10T03:11:26;101124.94;;;26.79;45.16
62617;BME280;62539;51.190;6.808;2023-06-10T03:13:52;101124.06;;;26.78;44.96
62617;BME280;62539;51.190;6.808;2023-06-10T03:16:19;101121.53;;;26.77;45.01
62617;BME280;62539;51.190;6.808;2023-06-10T03:18:44;101130.47;;;26.76;44.87
62617;BME280;62539;51.190;6.808;2023-06-10T03:21:10;101123.44;;;26.75;45.13
62617;BME280;62539;51.190;6.808;2023-06-10T03:23:36;101121.72;;;26.74;45.09
62617;BME280;62539;51.190;6.808;2023-06-10T03:26:02;101126.16;;;26.73;45.12
62617;BME280;62539;51.190;6.808;2023-06-10T03:28:27;101128.84;;;26.73;45.13
62617;BME280;62539;51.190;6.808;2023-06-10T03:30:53;101116.41;;;26.74;45.19
62617;BME280;62539;51.190;6.808;2023-06-10T03:33:18;101126.28;;;26.71;45.16
62617;BME280;62539;51.190;6.808;2023-06-10T03:35:44;101127.25;;;26.70;45.22
62617;BME280;62539;51.190;6.808;2023-06-10T03:38:09;101141.50;;;26.69;45.32
62617;BME280;62539;51.190;6.808;2023-06-10T03:40:34;101130.84;;;26.69;44.88
62617;BME280;62539;51.190;6.808;2023-06-10T03:43:00;101136.19;;;26.69;45.18
62617;BME280;62539;51.190;6.808;2023-06-10T03:45:26;101132.75;;;26.67;45.28
62617;BME280;62539;51.190;6.808;2023-06-10T03:47:53;101137.22;;;26.67;45.25
62617;BME280;62539;51.190;6.808;2023-06-10T03:50:19;101131.88;;;26.67;45.33
62617;BME280;62539;51.190;6.808;2023-06-10T03:52:45;101142.53;;;26.67;45.51
62617;BME280;62539;51.190;6.808;2023-06-10T03:55:11;101138.16;;;26.66;45.13
62617;BME280;62539;51.190;6.808;2023-06-10T03:57:38;101148.91;;;26.64;45.36
62617;BME280;62539;51.190;6.808;2023-06-10T04:00:05;101144.53;;;26.63;45.37
62617;BME280;62539;51.190;6.808;2023-06-10T04:02:37;101135.69;;;26.63;45.24
62617;BME280;62539;51.190;6.808;2023-06-10T04:05:11;101142.84;;;26.62;45.32
62617;BME280;62539;51.190;6.808;2023-06-10T04:07:37;101144.75;;;26.60;45.18
62617;BME280;62539;51.190;6.808;2023-06-10T04:10:05;101142.09;;;26.60;45.20
62617;BME280;62539;51.190;6.808;2023-06-10T04:12:31;101147.41;;;26.60;45.42
62617;BME280;62539;51.190;6.808;2023-06-10T04:14:56;101145.69;;;26.59;45.53
62617;BME280;62539;51.190;6.808;2023-06-10T04:17:22;101149.31;;;26.58;45.46
62617;BME280;62539;51.190;6.808;2023-06-10T04:19:47;101154.63;;;26.58;45.43
62617;BME280;62539;51.190;6.808;2023-06-10T04:22:13;101155.47;;;26.59;45.49
62617;BME280;62539;51.190;6.808;2023-06-10T04:24:38;101158.25;;;26.57;45.51
62617;BME280;62539;51.190;6.808;2023-06-10T04:27:04;101159.06;;;26.58;45.49
62617;BME280;62539;51.190;6.808;2023-06-10T04:29:30;101160.13;;;26.55;45.81
62617;BME280;62539;51.190;6.808;2023-06-10T04:31:55;101161.94;;;26.54;45.78
62617;BME280;62539;51.190;6.808;2023-06-10T04:34:21;101167.16;;;26.56;45.50
62617;BME280;62539;51.190;6.808;2023-06-10T04:36:46;101164.59;;;26.54;45.66
62617;BME280;62539;51.190;6.808;2023-06-10T04:39:12;101163.75;;;26.54;45.70
62617;BME280;62539;51.190;6.808;2023-06-10T04:41:37;101171.72;;;26.54;45.42
62617;BME280;62539;51.190;6.808;2023-06-10T04:44:02;101167.38;;;26.53;45.70
62617;BME280;62539;51.190;6.808;2023-06-10T04:46:28;101167.38;;;26.53;45.87
62617;BME280;62539;51.190;6.808;2023-06-10T04:48:55;101157.66;;;26.52;45.74
62617;BME280;62539;51.190;6.808;2023-06-10T04:51:21;101162.03;;;26.53;45.63
62617;BME280;62539;51.190;6.808;2023-06-10T04:53:46;101161.16;;;26.52;45.90
62617;BME280;62539;51.190;6.808;2023-06-10T04:56:11;101161.28;;;26.51;45.80
62617;BME280;62539;51.190;6.808;2023-06-10T04:58:37;101161.28;;;26.51;45.71
62617;BME280;62539;51.190;6.808;2023-06-10T05:01:02;101163.94;;;26.51;45.58
62617;BME280;62539;51.190;6.808;2023-06-10T05:03:28;101163.94;;;26.51;45.87
62617;BME280;62539;51.190;6.808;2023-06-10T05:05:53;101156.91;;;26.50;45.83
62617;BME280;62539;51.190;6.808;2023-06-10T05:08:20;101157.78;;;26.50;45.77
62617;BME280;62539;51.190;6.808;2023-06-10T05:10:45;101156.91;;;26.50;45.79
62617;BME280;62539;51.190;6.808;2023-06-10T05:13:10;101156.91;;;26.50;45.74
62617;BME280;62539;51.190;6.808;2023-06-10T05:15:36;101156.91;;;26.50;45.69
62617;BME280;62539;51.190;6.808;2023-06-10T05:18:02;101172.88;;;26.50;45.93
62617;BME280;62539;51.190;6.808;2023-06-10T05:20:27;101162.22;;;26.50;45.80
62617;BME280;62539;51.190;6.808;2023-06-10T05:22:53;101167.56;;;26.50;45.89
62617;BME280;62539;51.190;6.808;2023-06-10T05:25:19;101170.22;;;26.50;45.89
62617;BME280;62539;51.190;6.808;2023-06-10T05:27:44;101170.22;;;26.50;45.81
62617;BME280;62539;51.190;6.808;2023-06-10T05:30:10;101170.22;;;26.50;45.52
62617;BME280;62539;51.190;6.808;2023-06-10T05:32:36;101163.94;;;26.51;45.50
62617;BME280;62539;51.190;6.808;2023-06-10T05:35:01;101164.78;;;26.51;45.80
62617;BME280;62539;51.190;6.808;2023-06-10T05:37:28;101161.28;;;26.51;45.74
62617;BME280;62539;51.190;6.808;2023-06-10T05:39:54;101163.94;;;26.51;45.67
62617;BME280;62539;51.190;6.808;2023-06-10T05:42:20;101165.66;;;26.52;45.39
62617;BME280;62539;51.190;6.808;2023-06-10T05:44:45;101160.34;;;26.52;45.54
62617;BME280;62539;51.190;6.808;2023-06-10T05:47:10;101165.66;;;26.52;45.29
62617;BME280;62539;51.190;6.808;2023-06-10T05:49:36;101173.63;;;26.52;45.65
62617;BME280;62539;51.190;6.808;2023-06-10T05:52:01;101170.09;;;26.51;45.73
62617;BME280;62539;51.190;6.808;2023-06-10T05:54:27;101170.97;;;26.52;45.30
62617;BME280;62539;51.190;6.808;2023-06-10T05:56:52;101174.47;;;26.52;45.47
62617;BME280;62539;51.190;6.808;2023-06-10T05:59:18;101170.97;;;26.52;45.33
62617;BME280;62539;51.190;6.808;2023-06-10T06:01:43;101181.63;;;26.52;45.34
62617;BME280;62539;51.190;6.808;2023-06-10T06:04:09;101177.13;;;26.52;45.50
62617;BME280;62539;51.190;6.808;2023-06-10T06:06:35;101183.31;;;26.53;45.56
62617;BME280;62539;51.190;6.808;2023-06-10T06:09:01;101180.66;;;26.53;45.52
62617;BME280;62539;51.190;6.808;2023-06-10T06:11:26;101182.38;;;26.54;45.43
62617;BME280;62539;51.190;6.808;2023-06-10T06:13:52;101179.72;;;26.54;45.30
62617;BME280;62539;51.190;6.808;2023-06-10T06:16:17;101179.72;;;26.54;45.49
62617;BME280;62539;51.190;6.808;2023-06-10T06:18:43;101178.75;;;26.55;45.30
62617;BME280;62539;51.190;6.808;2023-06-10T06:21:09;101177.81;;;26.56;45.49
62617;BME280;62539;51.190;6.808;2023-06-10T06:23:34;101175.22;;;26.54;45.64
62617;BME280;62539;51.190;6.808;2023-06-10T06:26:00;101183.13;;;26.56;45.56
62617;BME280;62539;51.190;6.808;2023-06-10T06:28:25;101180.47;;;26.56;45.63
62617;BME280;62539;51.190;6.808;2023-06-10T06:30:54;101183.97;;;26.56;45.50
62617;BME280;62539;51.190;6.808;2023-06-10T06:33:20;101187.50;;;26.57;45.33
62617;BME280;62539;51.190;6.808;2023-06-10T06:35:46;101187.50;;;26.57;45.49
62617;BME280;62539;51.190;6.808;2023-06-10T06:38:11;101179.53;;;26.57;45.55
62617;BME280;62539;51.190;6.808;2023-06-10T06:40:37;101181.22;;;26.58;45.53
62617;BME280;62539;51.190;6.808;2023-06-10T06:43:02;101191.88;;;26.58;45.63
62617;BME280;62539;51.190;6.808;2023-06-10T06:45:28;101185.59;;;26.59;45.69
62617;BME280;62539;51.190;6.808;2023-06-10T06:47:53;101184.66;;;26.60;45.75
62617;BME280;62539;51.190;6.808;2023-06-10T06:50:18;101197.09;;;26.60;45.88
62617;BME280;62539;51.190;6.808;2023-06-10T06:52:44;101191.69;;;26.61;45.72
62617;BME280;62539;51.190;6.808;2023-06-10T06:55:09;101186.38;;;26.61;45.67
62617;BME280;62539;51.190;6.808;2023-06-10T06:57:35;101197.84;;;26.62;45.73
62617;BME280;62539;51.190;6.808;2023-06-10T07:00:01;101194.34;;;26.61;45.55
62617;BME280;62539;51.190;6.808;2023-06-10T07:02:27;101197.75;;;26.63;45.70
62617;BME280;62539;51.190;6.808;2023-06-10T07:04:53;101201.25;;;26.64;45.49
62617;BME280;62539;51.190;6.808;2023-06-10T07:07:21;101194.16;;;26.64;45.63
62617;BME280;62539;51.190;6.808;2023-06-10T07:09:47;101198.53;;;26.65;45.49
62617;BME280;62539;51.190;6.808;2023-06-10T07:12:12;101192.25;;;26.66;45.71
62617;BME280;62539;51.190;6.808;2023-06-10T07:14:37;101202.91;;;26.66;45.69
62617;BME280;62539;51.190;6.808;2023-06-10T07:17:03;101210.88;;;26.66;45.47
62617;BME280;62539;51.190;6.808;2023-06-10T07:19:28;101203.66;;;26.68;45.75
62617;BME280;62539;51.190;6.808;2023-06-10T07:21:54;101208.09;;;26.68;45.40
62617;BME280;62539;51.190;6.808;2023-06-10T07:24:19;101199.16;;;26.69;45.45
62617;BME280;62539;51.190;6.808;2023-06-10T07:26:46;101207.06;;;26.70;45.59
62617;BME280;62539;51.190;6.808;2023-06-10T07:29:11;101204.41;;;26.70;45.39
62617;BME280;62539;51.190;6.808;2023-06-10T07:31:37;101201.75;;;26.70;45.32
62617;BME280;62539;51.190;6.808;2023-06-10T07:34:03;101201.63;;;26.72;45.39
62617;BME280;62539;51.190;6.808;2023-06-10T07:36:28;101198.13;;;26.71;45.38
62617;BME280;62539;51.190;6.808;2023-06-10T07:38:55;101198.91;;;26.74;45.48
62617;BME280;62539;51.190;6.808;2023-06-10T07:41:23;101197.94;;;26.75;45.57
62617;BME280;62539;51.190;6.808;2023-06-10T07:43:50;101197.06;;;26.74;45.30
62617;BME280;62539;51.190;6.808;2023-06-10T07:46:22;101199.66;;;26.76;45.31
62617;BME280;62539;51.190;6.808;2023-06-10T07:48:48;101202.31;;;26.76;45.26
62617;BME280;62539;51.190;6.808;2023-06-10T07:51:17;101201.38;;;26.77;45.55
62617;BME280;62539;51.190;6.808;2023-06-10T07:53:43;101203.91;;;26.78;45.21
62617;BME280;62539;51.190;6.808;2023-06-10T07:56:08;101196.81;;;26.79;45.64
62617;BME280;62539;51.190;6.808;2023-06-10T07:58:34;101194.97;;;26.79;45.44
62617;BME280;62539;51.190;6.808;2023-06-10T08:00:59;101199.47;;;26.79;45.29
62617;BME280;62539;51.190;6.808;2023-06-10T08:03:24;101202.00;;;26.80;45.34
62617;BME280;62539;51.190;6.808;2023-06-10T08:05:50;101199.34;;;26.80;45.50
62617;BME280;62539;51.190;6.808;2023-06-10T08:08:15;101189.56;;;26.81;45.39
62617;BME280;62539;51.190;6.808;2023-06-10T08:10:41;101198.41;;;26.81;45.41
62617;BME280;62539;51.190;6.808;2023-06-10T08:13:08;101193.94;;;26.82;45.46
62617;BME280;62539;51.190;6.808;2023-06-10T08:15:33;101195.69;;;26.83;45.46
62617;BME280;62539;51.190;6.808;2023-06-10T08:17:59;101193.78;;;26.85;45.81
62617;BME280;62539;51.190;6.808;2023-06-10T08:20:24;101196.44;;;26.85;45.71
62617;BME280;62539;51.190;6.808;2023-06-10T08:22:50;101194.63;;;26.85;45.81
62617;BME280;62539;51.190;6.808;2023-06-10T08:25:15;101196.34;;;26.87;45.53
62617;BME280;62539;51.190;6.808;2023-06-10T08:27:41;101191.88;;;26.87;45.58
62617;BME280;62539;51.190;6.808;2023-06-10T08:30:07;101198.91;;;26.88;45.70
62617;BME280;62539;51.190;6.808;2023-06-10T08:32:33;101197.97;;;26.89;45.55
62617;BME280;62539;51.190;6.808;2023-06-10T08:34:58;101197.84;;;26.91;45.55
62617;BME280;62539;51.190;6.808;2023-06-10T08:37:24;101198.72;;;26.91;45.34
62617;BME280;62539;51.190;6.808;2023-06-10T08:39:49;101201.25;;;26.93;45.43
62617;BME280;62539;51.190;6.808;2023-06-10T08:42:28;101187.00;;;26.94;45.39
62617;BME280;62539;51.190;6.808;2023-06-10T08:45:00;101195.75;;;26.96;45.31
62617;BME280;62539;51.190;6.808;2023-06-10T08:47:29;101193.00;;;26.97;45.20
62617;BME280;62539;51.190;6.808;2023-06-10T08:50:02;101190.34;;;26.97;45.21
62617;BME280;62539;51.190;6.808;2023-06-10T08:52:35;101192.88;;;26.99;45.04
62617;BME280;62539;51.190;6.808;2023-06-10T08:55:15;101192.81;;;27.00;45.09
62617;BME280;62539;51.190;6.808;2023-06-10T08:57:48;101190.03;;;27.02;45.07
62617;BME280;62539;51.190;6.808;2023-06-10T09:00:15;101194.41;;;27.03;45.16
62617;BME280;62539;51.190;6.808;2023-06-10T09:02:41;101194.31;;;27.05;44.96
62617;BME280;62539;51.190;6.808;2023-06-10T09:05:09;101191.53;;;27.06;44.93
62617;BME280;62539;51.190;6.808;2023-06-10T09:07:35;101185.38;;;27.06;44.99
62617;BME280;62539;51.190;6.808;2023-06-10T09:10:03;101188.78;;;27.08;44.94
62617;BME280;62539;51.190;6.808;2023-06-10T09:12:33;101186.13;;;27.08;45.13
62617;BME280;62539;51.190;6.808;2023-06-10T09:14:59;101186.88;;;27.10;44.92
62617;BME280;62539;51.190;6.808;2023-06-10T09:17:26;101188.69;;;27.09;44.97
62617;BME280;62539;51.190;6.808;2023-06-10T09:19:52;101191.25;;;27.11;44.75
62617;BME280;62539;51.190;6.808;2023-06-10T09:22:21;101179.66;;;27.12;44.89
62617;BME280;62539;51.190;6.808;2023-06-10T09:24:47;101184.03;;;27.13;45.02
62617;BME280;62539;51.190;6.808;2023-06-10T09:27:13;101182.19;;;27.13;44.79
62617;BME280;62539;51.190;6.808;2023-06-10T09:32:21;101177.63;;;27.15;44.81
62617;BME280;62539;51.190;6.808;2023-06-10T09:34:47;101173.19;;;27.16;44.83
62617;BME280;62539;51.190;6.808;2023-06-10T09:37:13;101177.53;;;27.17;44.75
62617;BME280;62539;51.190;6.808;2023-06-10T09:40:01;101172.31;;;27.15;44.74
62617;BME280;62539;51.190;6.808;2023-06-10T09:42:32;101174.78;;;27.19;44.68
62617;BME280;62539;51.190;6.808;2023-06-10T09:45:06;101164.97;;;27.19;44.73
62617;BME280;62539;51.190;6.808;2023-06-10T09:47:32;101173.19;;;27.16;44.60
62617;BME280;62539;51.190;6.808;2023-06-10T09:49:57;101174.78;;;27.19;44.87
62617;BME280;62539;51.190;6.808;2023-06-10T09:52:24;101172.03;;;27.20;44.63
62617;BME280;62539;51.190;6.808;2023-06-10T09:54:51;101162.22;;;27.21;44.69
62617;BME280;62539;51.190;6.808;2023-06-10T09:57:19;101168.41;;;27.21;44.65
62617;BME280;62539;51.190;6.808;2023-06-10T09:59:46;101155.84;;;27.23;44.65
62617;BME280;62539;51.190;6.808;2023-06-10T10:02:16;101163.72;;;27.25;44.55
62617;BME280;62539;51.190;6.808;2023-06-10T10:04:43;101161.81;;;27.27;44.51
62617;BME280;62539;51.190;6.808;2023-06-10T10:07:10;101159.06;;;27.28;44.54
62617;BME280;62539;51.190;6.808;2023-06-10T10:09:37;101161.59;;;27.30;44.65
62617;BME280;62539;51.190;6.808;2023-06-10T10:12:12;101151.81;;;27.31;44.50
62617;BME280;62539;51.190;6.808;2023-06-10T10:14:43;101160.56;;;27.33;44.41
62617;BME280;62539;51.190;6.808;2023-06-10T10:17:14;101158.66;;;27.35;44.47
62617;BME280;62539;51.190;6.808;2023-06-10T10:19:50;101152.44;;;27.34;44.25
62617;BME280;62539;51.190;6.808;2023-06-10T10:22:36;101148.00;;;27.35;44.35
62617;BME280;62539;51.190;6.808;2023-06-10T10:25:11;101158.44;;;27.38;44.26
62617;BME280;62539;51.190;6.808;2023-06-10T10:27:44;101154.81;;;27.39;44.38
62617;BME280;62539;51.190;6.808;2023-06-10T10:30:17;101156.53;;;27.40;44.40
62617;BME280;62539;51.190;6.808;2023-06-10T10:35:26;101150.13;;;27.42;44.16
62617;BME280;62539;51.190;6.808;2023-06-10T10:37:53;101147.38;;;27.44;44.28
62617;BME280;62539;51.190;6.808;2023-06-10T10:40:21;101143.75;;;27.45;44.29
62617;BME280;62539;51.190;6.808;2023-06-10T10:42:49;101140.13;;;27.46;44.17
62617;BME280;62539;51.190;6.808;2023-06-10T10:45:15;101135.66;;;27.47;44.02
62617;BME280;62539;51.190;6.808;2023-06-10T10:47:41;101138.22;;;27.48;44.14
62617;BME280;62539;51.190;6.808;2023-06-10T10:50:14;101143.38;;;27.51;43.97
62617;BME280;62539;51.190;6.808;2023-06-10T10:52:55;101139.97;;;27.49;44.12
62617;BME280;62539;51.190;6.808;2023-06-10T10:55:26;101137.09;;;27.52;44.07
62617;BME280;62539;51.190;6.808;2023-06-10T10:57:57;101141.47;;;27.53;43.99
62617;BME280;62539;51.190;6.808;2023-06-10T11:02:59;101141.25;;;27.56;44.14
62617;BME280;62539;51.190;6.808;2023-06-10T11:05:42;101141.25;;;27.56;43.91
62617;BME280;62539;51.190;6.808;2023-06-10T11:11:01;101134.03;;;27.58;44.01
62617;BME280;62539;51.190;6.808;2023-06-10T11:13:57;101130.59;;;27.56;43.83
62617;BME280;62539;51.190;6.808;2023-06-10T11:16:26;101126.03;;;27.58;44.13
62617;BME280;62539;51.190;6.808;2023-06-10T11:18:56;101130.41;;;27.60;43.94
62617;BME280;62539;51.190;6.808;2023-06-10T11:21:25;101117.81;;;27.62;43.98
62617;BME280;62539;51.190;6.808;2023-06-10T11:23:50;101119.63;;;27.61;44.14
62617;BME280;62539;51.190;6.808;2023-06-10T11:31:31;101109.81;;;27.62;43.96
62617;BME280;62539;51.190;6.808;2023-06-10T11:34:03;101114.94;;;27.65;44.01
62617;BME280;62539;51.190;6.808;2023-06-10T11:36:30;101106.09;;;27.64;43.79
62617;BME280;62539;51.190;6.808;2023-06-10T11:38:59;101111.41;;;27.64;44.06
62617;BME280;62539;51.190;6.808;2023-06-10T11:41:27;101108.66;;;27.66;44.13
62617;BME280;62539;51.190;6.808;2023-06-10T11:43:54;101108.66;;;27.66;43.79
62617;BME280;62539;51.190;6.808;2023-06-10T11:46:24;101109.50;;;27.66;43.76
62617;BME280;62539;51.190;6.808;2023-06-10T11:48:57;101112.06;;;27.68;43.82
62617;BME280;62539;51.190;6.808;2023-06-10T11:51:28;101102.25;;;27.68;43.81
62617;BME280;62539;51.190;6.808;2023-06-10T11:53:58;101103.13;;;27.69;43.84
62617;BME280;62539;51.190;6.808;2023-06-10T11:56:28;101102.25;;;27.68;43.72
62617;BME280;62539;51.190;6.808;2023-06-10T11:58:57;101094.16;;;27.70;43.90
62617;BME280;62539;51.190;6.808;2023-06-10T12:01:32;101100.25;;;27.72;43.90
62617;BME280;62539;51.190;6.808;2023-06-10T12:04:01;101101.00;;;27.74;44.21
62617;BME280;62539;51.190;6.808;2023-06-10T12:06:27;101101.75;;;27.76;44.26
62617;BME280;62539;51.190;6.808;2023-06-10T12:09:02;101098.00;;;27.79;44.74
62617;BME280;62539;51.190;6.808;2023-06-10T12:11:27;101104.94;;;27.81;44.89
62617;BME280;62539;51.190;6.808;2023-06-10T12:13:53;101095.84;;;27.84;45.21
62617;BME280;62539;51.190;6.808;2023-06-10T12:16:18;101102.06;;;27.84;45.28
62617;BME280;62539;51.190;6.808;2023-06-10T12:18:45;101101.84;;;27.87;45.47
62617;BME280;62539;51.190;6.808;2023-06-10T12:21:24;101106.09;;;27.90;45.70
62617;BME280;62539;51.190;6.808;2023-06-10T12:24:04;101105.25;;;27.90;45.81
62617;BME280;62539;51.190;6.808;2023-06-10T12:26:44;101108.88;;;27.88;44.63
62617;BME280;62539;51.190;6.808;2023-06-10T12:32:00;101099.16;;;27.75;44.35
62617;BME280;62539;51.190;6.808;2023-06-10T12:34:32;101096.72;;;27.71;44.71
62617;BME280;62539;51.190;6.808;2023-06-10T12:36:58;101105.78;;;27.69;44.37
62617;BME280;62539;51.190;6.808;2023-06-10T12:39:24;101106.94;;;27.65;44.41
62617;BME280;62539;51.190;6.808;2023-06-10T12:41:51;101104.50;;;27.62;44.42
62617;BME280;62539;51.190;6.808;2023-06-10T12:44:17;101100.13;;;27.61;44.28
62617;BME280;62539;51.190;6.808;2023-06-10T12:46:42;101107.38;;;27.58;44.64
62617;BME280;62539;51.190;6.808;2023-06-10T12:49:18;101101.38;;;27.55;44.57
62617;BME280;62539;51.190;6.808;2023-06-10T12:51:45;101095.09;;;27.56;44.48
62617;BME280;62539;51.190;6.808;2023-06-10T12:54:11;101098.63;;;27.56;44.93
62617;BME280;62539;51.190;6.808;2023-06-10T12:56:37;101097.66;;;27.57;44.99
62617;BME280;62539;51.190;6.808;2023-06-10T12:59:02;101091.38;;;27.58;44.81
62617;BME280;62539;51.190;6.808;2023-06-10T13:01:28;101099.25;;;27.60;44.75
62617;BME280;62539;51.190;6.808;2023-06-10T13:03:56;101086.81;;;27.61;44.76
62617;BME280;62539;51.190;6.808;2023-06-10T13:06:21;101082.44;;;27.60;44.36
62617;BME280;62539;51.190;6.808;2023-06-10T13:08:47;101081.56;;;27.59;44.67
62617;BME280;62539;51.190;6.808;2023-06-10T13:11:12;101073.69;;;27.57;44.46
62617;BME280;62539;51.190;6.808;2023-06-10T13:13:38;101072.81;;;27.57;44.44